Time;durP1;ratioP1;P1;durP2;ratioP2;P2;SDS_P1;SDS_P2;PMS_P1;PMS_P2;Temp;Humidity;BMP_temperature;BMP_pressure;BME280_temperature;BME280_humidity;BME280_pressure;Samples;Min_cycle;Max_cycle;Signal;HPM_P1;HPM_P2
2022/07/24 00:02:21;;;;;;;14.50;13.10;;;;;;;18.74;95.12;96814.38;108826;1264;22618;-85
2022/07/24 00:05:02;;;;;;;14.80;13.30;;;;;;;18.80;95.26;96815.02;108905;1264;22530;-85
2022/07/24 00:07:38;;;;;;;15.20;13.80;;;;;;;18.85;95.30;96807.70;108894;1261;24230;-85
2022/07/24 00:10:13;;;;;;;14.50;13.20;;;;;;;18.88;95.13;96817.60;108845;1264;22542;-85
2022/07/24 00:12:50;;;;;;;14.20;12.80;;;;;;;18.88;95.00;96826.96;108912;1261;25307;-85
2022/07/24 00:15:22;;;;;;;14.10;12.80;;;;;;;18.88;94.99;96834.46;108640;1261;92246;-84
2022/07/24 00:18:11;;;;;;;14.10;12.80;;;;;;;18.88;95.13;96836.38;108868;1261;24027;-84
2022/07/24 00:21:02;;;;;;;15.50;14.00;;;;;;;18.93;95.10;96824.95;108932;1261;24272;-84
2022/07/24 00:23:33;;;;;;;16.60;14.90;;;;;;;18.96;95.03;96816.80;108882;1263;22512;-84
2022/07/24 00:26:14;;;;;;;15.90;14.50;;;;;;;19.02;94.94;96811.63;108653;1261;110144;-84
2022/07/24 00:28:49;;;;;;;16.30;14.80;;;;;;;19.01;94.81;96811.29;108920;1261;22536;-84
2022/07/24 00:31:23;;;;;;;16.10;14.60;;;;;;;18.95;94.88;96811.38;108908;1260;23193;-84
2022/07/24 00:33:55;;;;;;;16.00;14.50;;;;;;;18.86;94.94;96805.53;108853;1264;22551;-84
2022/07/24 00:36:31;;;;;;;15.40;14.00;;;;;;;18.81;95.21;96808.00;108565;1264;82398;-84
2022/07/24 00:39:13;;;;;;;15.30;13.90;;;;;;;18.80;95.22;96804.75;108863;1264;22765;-84
2022/07/24 00:41:44;;;;;;;16.20;14.30;;;;;;;18.80;95.34;96805.60;108908;1261;24256;-84
2022/07/24 00:44:16;;;;;;;16.00;14.50;;;;;;;18.77;95.32;96805.02;108904;1261;22535;-84
2022/07/24 00:46:56;;;;;;;16.20;14.60;;;;;;;18.77;95.42;96806.41;108684;1261;110628;-84
2022/07/24 00:49:37;;;;;;;16.80;15.30;;;;;;;18.80;95.29;96807.88;108926;1261;22509;-84
2022/07/24 00:52:17;;;;;;;16.00;14.50;;;;;;;18.75;95.14;96809.41;108882;1261;22809;-84
2022/07/24 00:54:54;;;;;;;16.80;15.30;;;;;;;18.78;95.38;96811.91;108891;1261;22574;-84
2022/07/24 00:57:28;;;;;;;16.20;14.50;;;;;;;18.84;95.43;96806.35;108708;1261;119403;-84
2022/07/24 01:00:14;;;;;;;17.00;15.30;;;;;;;18.85;95.12;96799.27;108929;1261;23807;-85
2022/07/24 01:03:06;;;;;;;17.60;15.80;;;;;;;18.84;95.05;96792.68;108884;1259;22545;-84
2022/07/24 01:05:40;;;;;;;17.10;15.60;;;;;;;18.81;95.00;96792.13;108669;1259;112122;-84
2022/07/24 01:08:21;;;;;;;17.70;16.00;;;;;;;18.75;94.90;96793.57;108892;1261;23240;-85
2022/07/24 01:10:58;;;;;;;18.00;16.40;;;;;;;18.63;95.08;96795.18;108926;1261;22550;-85
2022/07/24 01:13:38;;;;;;;18.60;16.90;;;;;;;18.60;95.59;96795.13;108929;1261;25245;-85
2022/07/24 01:16:23;;;;;;;18.10;16.50;;;;;;;18.61;95.70;96791.95;108698;1264;77643;-85
2022/07/24 01:18:59;;;;;;;19.80;17.80;;;;;;;18.60;95.97;96788.23;108936;1261;22565;-85
2022/07/24 01:21:31;;;;;;;19.40;17.60;;;;;;;18.62;96.18;96790.46;108913;1261;22541;-85
2022/07/24 01:24:05;;;;;;;18.90;17.10;;;;;;;18.67;96.25;96788.84;108931;1261;22552;-84
2022/07/24 01:26:51;;;;;;;19.90;18.10;;;;;;;18.72;96.23;96785.83;108696;1263;80031;-84
2022/07/24 01:29:22;;;;;;;18.10;16.40;;;;;;;18.74;96.11;96785.81;108894;1261;24205;-84
2022/07/24 01:31:54;;;;;;;19.60;17.60;;;;;;;18.77;96.07;96786.00;108908;1260;25360;-85
2022/07/24 01:34:31;;;;;;;20.10;18.40;;;;;;;18.84;95.91;96790.53;108891;1261;22691;-84
2022/07/24 01:37:12;;;;;;;18.00;16.40;;;;;;;18.90;95.76;96793.85;108753;1261;76810;-84
2022/07/24 01:39:41;;;;;;;;;;;;;;;18.96;95.55;96798.66;108933;1261;24197;-84
2022/07/24 01:42:15;;;;;;;17.80;16.10;;;;;;;18.96;95.46;96797.30;108856;1261;22575;-85
2022/07/24 01:44:52;;;;;;;20.00;17.70;;;;;;;18.96;95.55;96797.61;108930;1261;25287;-84
2022/07/24 01:47:26;;;;;;;20.90;18.20;;;;;;;19.00;95.55;96796.81;108764;1261;85363;-84
2022/07/24 01:50:03;;;;;;;20.20;18.20;;;;;;;19.03;95.39;96795.69;108931;1261;24186;-84
2022/07/24 01:52:36;;;;;;;18.90;17.00;;;;;;;19.03;95.49;96795.63;108864;1264;22538;-84
2022/07/24 01:55:15;;;;;;;21.50;19.30;;;;;;;19.05;95.87;96796.87;108631;1259;107277;-84
2022/07/24 01:57:47;;;;;;;23.40;21.10;;;;;;;19.08;96.11;96793.49;108920;1261;22552;-85
2022/07/24 02:00:24;;;;;;;25.30;23.00;;;;;;;19.12;96.72;96796.70;108918;1261;22527;-84
2022/07/24 02:02:59;;;;;;;26.10;23.60;;;;;;;19.13;96.89;96799.62;108864;1264;24457;-85
2022/07/24 02:05:35;;;;;;;28.00;25.40;;;;;;;19.16;97.37;96799.73;108726;1261;90197;-85
2022/07/24 02:08:16;;;;;;;34.20;30.90;;;;;;;19.16;97.74;96799.19;108882;1261;22661;-85
2022/07/24 02:10:47;;;;;;;31.20;28.40;;;;;;;19.17;97.92;96794.98;108880;1262;23556;-84
2022/07/24 02:13:19;;;;;;;32.70;29.70;;;;;;;19.17;97.87;96802.22;108893;1263;23516;-85
2022/07/24 02:15:50;;;;;;;37.90;34.30;;;;;;;19.16;98.17;96799.50;107064;1264;2307907;-85
2022/07/24 02:18:28;;;;;;;40.70;36.70;;;;;;;19.18;98.51;96797.66;108876;1262;22634;-85
2022/07/24 02:20:59;;;;;;;41.00;37.00;;;;;;;19.18;98.97;96796.27;108891;1264;22562;-85
2022/07/24 02:23:31;;;;;;;43.60;39.50;;;;;;;19.15;99.22;96807.90;108896;1262;22522;-85
2022/07/24 02:26:02;;;;;;;39.40;35.60;;;;;;;19.17;98.83;96810.13;104785;1264;5157790;-85
2022/07/24 02:28:51;;;;;;;42.70;38.70;;;;;;;19.20;98.51;96808.23;108696;1264;22660;-85
2022/07/24 02:31:23;;;;;;;44.90;40.50;;;;;;;19.20;98.21;96807.41;108867;1263;22565;-85
2022/07/24 02:34:05;;;;;;;43.20;39.00;;;;;;;19.21;98.09;96812.55;108911;1261;22590;-84
2022/07/24 02:36:40;;;;;;;42.40;38.60;;;;;;;19.20;98.18;96813.23;107145;1263;2140102;-85
2022/07/24 02:39:15;;;;;;;41.70;37.50;;;;;;;19.17;98.43;96818.10;108893;1264;22721;-85
2022/07/24 02:41:51;;;;;;;41.30;37.40;;;;;;;19.13;98.80;96824.77;108896;1264;23834;-85
2022/07/24 02:44:25;;;;;;;40.40;36.50;;;;;;;19.10;98.79;96826.51;108807;1264;24227;-84
2022/07/24 02:47:02;;;;;;;37.20;33.70;;;;;;;19.10;98.52;96832.35;108643;1264;103530;-84
2022/07/24 02:49:40;;;;;;;37.70;34.30;;;;;;;19.11;98.18;96838.23;108876;1263;22555;-84
2022/07/24 02:52:14;;;;;;;39.40;35.80;;;;;;;19.10;98.00;96837.48;108864;1264;25873;-84
2022/07/24 02:55:03;;;;;;;35.40;32.00;;;;;;;19.06;97.87;96843.80;108863;1264;22694;-84
2022/07/24 02:57:35;;;;;;;36.80;33.30;;;;;;;19.06;97.66;96836.95;108688;1263;147811;-84
2022/07/24 03:00:22;;;;;;;36.40;33.00;;;;;;;19.03;97.43;96841.17;108831;1264;22528;-84
2022/07/24 03:02:53;;;;;;;36.10;32.80;;;;;;;19.07;97.29;96842.44;108865;1262;22580;-84
2022/07/24 03:05:31;;;;;;;36.60;33.00;;;;;;;19.09;96.85;96850.36;108743;1264;65775;-84
2022/07/24 03:08:06;;;;;;;34.50;31.40;;;;;;;19.10;96.57;96852.15;108886;1264;22546;-84
2022/07/24 03:10:46;;;;;;;35.40;32.00;;;;;;;19.05;96.70;96850.36;108870;1263;22758;-84
2022/07/24 03:13:24;;;;;;;31.60;28.60;;;;;;;19.00;96.48;96859.99;108862;1264;22692;-84
2022/07/24 03:16:00;;;;;;;33.10;29.80;;;;;;;18.98;96.55;96860.31;107779;1264;1241124;-84
2022/07/24 03:18:31;;;;;;;33.70;30.40;;;;;;;18.94;96.64;96863.80;108871;1264;22534;-84
2022/07/24 03:21:11;;;;;;;30.80;27.90;;;;;;;18.92;96.79;96862.45;108874;1263;22517;-86
2022/07/24 03:23:44;;;;;;;29.30;26.40;;;;;;;18.90;97.10;96867.02;108882;1264;22612;-85
2022/07/24 03:26:16;;;;;;;30.30;27.30;;;;;;;18.88;97.03;96874.08;108710;1264;97052;-83
2022/07/24 03:29:08;;;;;;;29.40;26.60;;;;;;;18.92;96.87;96884.11;108857;1262;23890;-83
2022/07/24 03:31:46;;;;;;;26.60;24.00;;;;;;;18.96;96.65;96886.80;108848;1264;23777;-84
2022/07/24 03:34:31;;;;;;;26.40;23.90;;;;;;;19.03;96.39;96893.12;108848;1264;22595;-84
2022/07/24 03:37:18;;;;;;;21.90;19.60;;;;;;;19.09;95.85;96888.84;104792;1264;5217979;-86
2022/07/24 03:40:02;;;;;;;23.20;21.10;;;;;;;19.07;95.53;96887.75;108879;1264;22549;-84
2022/07/24 03:42:41;;;;;;;26.40;23.80;;;;;;;19.02;95.35;96881.17;108861;1263;22555;-84
2022/07/24 03:45:19;;;;;;;26.60;24.00;;;;;;;18.95;95.23;96888.15;107274;1264;1879826;-83
2022/07/24 03:48:01;;;;;;;25.20;22.70;;;;;;;18.93;95.26;96897.74;108843;1264;25261;-85
2022/07/24 03:50:48;;;;;;;25.60;23.10;;;;;;;18.91;95.18;96898.59;108880;1263;22552;-83
2022/07/24 03:53:24;;;;;;;22.50;20.40;;;;;;;18.91;94.96;96901.81;108839;1264;22586;-84
2022/07/24 03:56:05;;;;;;;23.10;20.90;;;;;;;18.93;94.66;96906.95;108690;1263;71153;-84
2022/07/24 03:58:56;;;;;;;21.40;19.40;;;;;;;18.96;94.43;96913.66;108847;1264;25450;-84
2022/07/24 04:01:49;;;;;;;20.00;18.10;;;;;;;18.99;94.09;96914.78;108844;1264;23941;-83
2022/07/24 04:04:20;;;;;;;20.60;18.70;;;;;;;19.01;93.85;96918.48;108864;1264;23709;-83
2022/07/24 04:06:57;;;;;;;19.60;17.90;;;;;;;19.06;93.82;96920.28;108649;1264;107254;-83
2022/07/24 04:09:39;;;;;;;18.40;16.50;;;;;;;19.07;93.26;96924.36;108866;1264;24973;-84
2022/07/24 04:12:13;;;;;;;17.40;15.70;;;;;;;19.01;92.70;96922.90;108840;1264;22887;-84
2022/07/24 04:14:49;;;;;;;16.70;15.10;;;;;;;19.00;92.48;96928.56;108799;1264;22857;-84
2022/07/24 04:17:25;;;;;;;15.90;14.30;;;;;;;19.00;92.09;96925.48;108627;1264;106305;-84
2022/07/24 04:20:01;;;;;;;14.50;13.20;;;;;;;18.94;91.66;96928.81;108832;1263;22531;-83
2022/07/24 04:22:39;;;;;;;14.80;13.20;;;;;;;18.94;91.50;96929.10;108854;1261;22554;-84
2022/07/24 04:25:16;;;;;;;14.50;13.10;;;;;;;18.89;90.44;96932.23;107750;1263;2390308;-80
2022/07/24 04:27:49;;;;;;;15.40;13.90;;;;;;;18.85;89.92;96935.17;108867;1264;44309;-84
2022/07/24 04:30:20;;;;;;;15.90;14.30;;;;;;;18.85;90.09;96944.41;108826;1264;22524;-84
2022/07/24 04:32:51;;;;;;;15.00;13.50;;;;;;;18.91;89.96;96944.87;108824;1263;22676;-83
2022/07/24 04:35:25;;;;;;;14.10;12.60;;;;;;;18.90;89.52;96942.21;108522;1264;164870;-83
2022/07/24 04:37:57;;;;;;;13.40;12.00;;;;;;;18.89;89.22;96944.17;108853;1264;22549;-83
2022/07/24 04:40:29;;;;;;;14.40;12.90;;;;;;;18.87;88.94;96941.13;108887;1264;22562;-82
2022/07/24 04:43:03;;;;;;;14.40;12.80;;;;;;;18.90;88.80;96945.08;108873;1264;22572;-82
2022/07/24 04:45:35;;;;;;;14.70;13.10;;;;;;;18.92;88.35;96947.92;108688;1262;98425;-82
2022/07/24 04:48:12;;;;;;;14.20;12.70;;;;;;;18.92;87.78;96941.54;108846;1264;22639;-83
2022/07/24 04:50:43;;;;;;;18.10;14.50;;;;;;;18.93;87.17;96940.04;108863;1264;22572;-83
2022/07/24 04:53:20;;;;;;;14.50;13.00;;;;;;;18.90;86.86;96938.98;108631;1264;25367;-83
2022/07/24 04:55:56;;;;;;;15.20;12.40;;;;;;;18.86;86.82;96946.66;108627;1264;110446;-83
2022/07/24 04:58:28;;;;;;;15.10;13.70;;;;;;;18.74;86.77;96948.10;108913;1264;24393;-81
2022/07/24 05:00:59;;;;;;;15.90;14.20;;;;;;;18.74;87.19;96953.53;108851;1264;22572;-79
2022/07/24 05:03:31;;;;;;;16.90;15.10;;;;;;;18.78;87.05;96953.11;108447;1264;23462;-79
2022/07/24 05:06:08;;;;;;;14.30;12.80;;;;;;;18.71;86.87;96959.16;108558;1264;24693;-80
2022/07/24 05:08:39;;;;;;;14.30;12.70;;;;;;;18.70;86.41;96955.36;108646;1264;22593;-79
2022/07/24 05:11:10;;;;;;;15.80;14.20;;;;;;;18.71;86.22;96954.16;108673;1262;22529;-79
2022/07/24 05:13:41;;;;;;;14.20;12.70;;;;;;;18.68;85.84;96956.92;108682;1264;22558;-78
2022/07/24 05:16:17;;;;;;;13.20;11.70;;;;;;;18.60;85.42;96958.42;106803;1264;2353929;-78
2022/07/24 05:18:53;;;;;;;14.00;11.40;;;;;;;18.59;85.58;96964.20;108682;1261;25062;-78
2022/07/24 05:21:29;;;;;;;14.00;12.60;;;;;;;18.58;85.67;96961.45;108658;1262;22637;-78
2022/07/24 05:24:02;;;;;;;13.70;12.00;;;;;;;18.63;85.38;96963.16;108662;1262;22524;-78
2022/07/24 05:26:39;;;;;;;12.60;11.30;;;;;;;18.71;85.26;96966.94;108483;1264;80143;-78
2022/07/24 05:29:13;;;;;;;12.90;11.60;;;;;;;18.80;84.61;96974.05;108641;1263;22536;-78
2022/07/24 05:31:54;;;;;;;12.00;10.80;;;;;;;18.75;83.45;96969.17;108668;1264;22522;-78
2022/07/24 05:34:29;;;;;;;13.70;11.00;;;;;;;18.62;82.77;96973.94;108698;1261;22524;-78
2022/07/24 05:37:14;;;;;;;11.00;9.90;;;;;;;18.62;83.45;96975.07;108413;1261;118310;-78
2022/07/24 05:39:51;;;;;;;11.20;9.00;;;;;;;18.71;83.24;96975.99;108672;1261;22692;-77
2022/07/24 05:42:25;;;;;;;11.40;9.80;;;;;;;18.73;82.06;96980.14;108658;1261;23976;-77
2022/07/24 05:44:56;;;;;;;10.80;9.70;;;;;;;18.66;81.82;96974.94;108601;1264;24230;-77
2022/07/24 05:47:28;;;;;;;9.60;8.60;;;;;;;18.66;81.78;96979.39;108492;1261;78253;-77
2022/07/24 05:50:06;;;;;;;9.80;8.70;;;;;;;18.67;82.14;96985.96;108673;1261;22947;-77
2022/07/24 05:52:46;;;;;;;9.80;8.60;;;;;;;18.74;81.84;96980.05;108665;1261;24302;-77
2022/07/24 05:55:17;;;;;;;13.90;11.00;;;;;;;18.73;81.22;96981.88;108527;1261;58095;-78
2022/07/24 05:57:49;;;;;;;10.80;9.30;;;;;;;18.63;80.95;96987.94;108554;1262;22619;-78
2022/07/24 06:00:25;;;;;;;10.90;8.60;;;;;;;18.60;80.74;96985.88;108645;1261;22543;-79
2022/07/24 06:02:58;;;;;;;10.10;9.00;;;;;;;18.66;80.33;96989.54;108706;1261;22556;-78
2022/07/24 06:05:32;;;;;;;12.60;9.10;;;;;;;18.75;80.04;96991.27;108560;1261;63313;-78
2022/07/24 06:08:11;;;;;;;11.60;9.10;;;;;;;18.90;79.82;96997.11;108608;1260;22517;-78
2022/07/24 06:10:42;;;;;;;9.10;8.10;;;;;;;18.89;78.79;96998.70;108663;1261;22526;-78
2022/07/24 06:13:14;;;;;;;10.60;8.70;;;;;;;18.99;79.47;97005.00;108579;1261;23802;-78
2022/07/24 06:15:53;;;;;;;10.40;8.60;;;;;;;19.06;78.91;97008.88;108314;1261;68737;-78
2022/07/24 06:18:24;;;;;;;10.40;8.40;;;;;;;19.24;79.08;97006.82;108687;1261;24240;-78
2022/07/24 06:20:59;;;;;;;10.00;8.10;;;;;;;19.33;78.21;97005.17;108652;1261;22805;-78
2022/07/24 06:23:43;;;;;;;10.50;8.10;;;;;;;19.20;77.24;97009.98;108635;1261;27838;-78
2022/07/24 06:26:15;;;;;;;11.00;8.20;;;;;;;19.30;77.59;97008.98;108579;1261;33932;-78
2022/07/24 06:28:47;;;;;;;7.30;6.60;;;;;;;19.48;77.37;97009.08;108551;1261;24191;-78
2022/07/24 06:31:18;;;;;;;9.30;7.90;;;;;;;19.63;75.79;97011.14;108695;1261;22542;-78
2022/07/24 06:33:50;;;;;;;8.70;7.10;;;;;;;19.75;75.53;97012.11;108744;1261;22555;-78
2022/07/24 06:36:21;;;;;;;6.60;5.90;;;;;;;20.26;75.51;97011.36;108568;1261;76694;-78
2022/07/24 06:38:55;;;;;;;8.00;5.40;;;;;;;21.45;75.97;97009.84;108681;1261;24212;-78
2022/07/24 06:41:27;;;;;;;7.20;6.00;;;;;;;23.76;73.52;97015.01;108755;1261;23806;-78
2022/07/24 06:43:59;;;;;;;6.50;5.80;;;;;;;25.28;70.29;97013.20;108778;1261;23861;-79
2022/07/24 06:46:30;;;;;;;6.40;5.60;;;;;;;27.02;66.91;97013.05;107176;1261;1781354;-79
2022/07/24 06:49:06;;;;;;;5.80;5.10;;;;;;;29.52;64.06;97013.52;108767;1261;22632;-79
2022/07/24 06:51:37;;;;;;;5.50;5.00;;;;;;;31.71;59.21;97011.80;108714;1261;22546;-79
2022/07/24 06:54:09;;;;;;;4.70;4.30;;;;;;;33.54;55.02;97010.22;108691;1261;22640;-79
2022/07/24 06:56:43;;;;;;;4.40;3.60;;;;;;;34.72;49.05;97010.08;108544;1261;106628;-80
2022/07/24 06:59:14;;;;;;;5.90;3.90;;;;;;;33.82;43.02;97005.79;108732;1261;22648;-79
2022/07/24 07:01:50;;;;;;;4.30;3.60;;;;;;;31.26;42.21;97010.14;108739;1261;22511;-79
2022/07/24 07:04:21;;;;;;;4.30;3.90;;;;;;;29.03;42.28;97010.84;108741;1261;22532;-80
2022/07/24 07:06:57;;;;;;;6.10;4.10;;;;;;;27.63;43.72;97021.41;108607;1261;68347;-79
2022/07/24 07:09:28;;;;;;;4.30;3.50;;;;;;;27.41;45.80;97020.56;108700;1261;22660;-80
2022/07/24 07:12:04;;;;;;;4.00;3.60;;;;;;;29.00;45.08;97019.66;108502;1264;22700;-79
2022/07/24 07:14:35;;;;;;;4.00;3.40;;;;;;;30.55;43.73;97019.15;108737;1264;22519;-79
2022/07/24 07:17:08;;;;;;;4.10;3.10;;;;;;;32.16;43.59;97024.52;107573;1262;1314480;-79
2022/07/24 07:19:43;;;;;;;5.20;3.10;;;;;;;33.10;40.44;97026.02;108690;1264;22529;-79
2022/07/24 07:22:17;;;;;;;4.20;3.40;;;;;;;31.22;37.48;97026.73;108700;1264;22619;-80
2022/07/24 07:24:50;;;;;;;3.40;2.90;;;;;;;28.99;38.79;97025.23;108849;1263;23432;-80
2022/07/24 07:27:22;;;;;;;4.20;3.50;;;;;;;26.44;41.63;97028.86;108693;1263;70578;-79
2022/07/24 07:29:53;;;;;;;4.80;4.30;;;;;;;25.29;44.34;97032.54;108705;1262;22534;-78
2022/07/24 07:32:25;;;;;;;5.30;4.00;;;;;;;25.17;47.04;97035.45;108691;1264;22546;-79
2022/07/24 07:35:00;;;;;;;4.30;3.90;;;;;;;26.45;47.48;97030.51;108698;1264;22562;-79
2022/07/24 07:37:36;;;;;;;4.50;3.40;;;;;;;29.18;45.85;97031.21;108684;1264;22520;-79
2022/07/24 07:40:12;;;;;;;6.30;3.80;;;;;;;29.67;39.77;97032.63;108721;1264;22549;-79
2022/07/24 07:42:43;;;;;;;4.90;3.60;;;;;;;27.98;42.31;97042.54;108691;1264;22513;-80
2022/07/24 07:45:15;;;;;;;5.50;3.90;;;;;;;28.27;42.40;97038.48;108638;1264;33217;-80
2022/07/24 07:47:50;;;;;;;3.70;3.20;;;;;;;29.10;43.87;97043.24;108676;1264;22625;-80
2022/07/24 07:50:24;;;;;;;3.60;3.30;;;;;;;31.14;43.12;97043.83;108714;1264;23780;-80
2022/07/24 07:52:56;;;;;;;4.00;3.50;;;;;;;33.98;40.47;97046.11;108721;1264;22550;-80
2022/07/24 07:55:31;;;;;;;3.80;2.40;;;;;;;36.47;39.08;97044.44;108729;1264;37478;-79
2022/07/24 07:58:09;;;;;;;4.80;2.80;;;;;;;38.42;35.25;97040.77;108726;1264;23837;-80
2022/07/24 08:00:44;;;;;;;3.00;2.70;;;;;;;37.14;32.72;97047.20;108720;1264;22528;-80
2022/07/24 08:03:18;;;;;;;3.20;2.80;;;;;;;35.90;34.22;97047.57;108708;1264;22511;-80
2022/07/24 08:05:50;;;;;;;3.40;2.90;;;;;;;34.99;32.50;97050.56;108594;1264;33512;-81
2022/07/24 08:08:27;;;;;;;2.90;2.70;;;;;;;35.65;33.97;97052.91;108720;1264;22532;-81
2022/07/24 08:11:01;;;;;;;3.40;2.80;;;;;;;37.42;31.87;97052.44;108867;1264;22679;-79
2022/07/24 08:13:34;;;;;;;3.10;2.70;;;;;;;35.13;28.88;97046.20;108716;1264;22547;-78
2022/07/24 08:16:14;;;;;;;3.90;2.70;;;;;;;31.14;32.38;97044.03;108635;1264;36186;-80
2022/07/24 08:18:49;;;;;;;3.40;3.10;;;;;;;28.53;35.50;97049.59;108677;1264;25371;-80
2022/07/24 08:21:21;;;;;;;4.80;3.40;;;;;;;26.72;38.35;97053.06;108699;1264;22521;-80
2022/07/24 08:23:58;;;;;;;4.30;2.90;;;;;;;26.68;40.67;97054.55;108693;1264;25407;-80
2022/07/24 08:26:30;;;;;;;3.70;2.90;;;;;;;29.60;39.48;97050.80;106909;1264;2293040;-80
2022/07/24 08:29:05;;;;;;;5.50;2.80;;;;;;;31.89;35.81;97047.52;108817;1263;22682;-80
2022/07/24 08:31:40;;;;;;;5.60;2.50;;;;;;;32.89;32.64;97046.52;108835;1264;22552;-81
2022/07/24 08:34:12;;;;;;;5.10;2.70;;;;;;;31.42;33.03;97047.11;108813;1264;22575;-81
2022/07/24 08:36:45;;;;;;;3.10;2.70;;;;;;;29.57;35.30;97055.29;108432;1264;83555;-80
2022/07/24 08:39:19;;;;;;;5.00;2.60;;;;;;;29.92;35.26;97056.04;108838;1264;22547;-80
2022/07/24 08:41:50;;;;;;;3.20;2.30;;;;;;;30.93;35.83;97058.27;108830;1263;24275;-81
2022/07/24 08:44:27;;;;;;;4.30;2.00;;;;;;;33.97;35.62;97060.92;108824;1264;22510;-80
2022/07/24 08:47:02;;;;;;;3.00;1.80;;;;;;;36.64;32.88;97061.80;108603;1264;116845;-81
2022/07/24 08:49:36;;;;;;;2.60;1.90;;;;;;;38.58;30.03;97056.55;108789;1264;22536;-81
2022/07/24 08:52:14;;;;;;;3.00;1.80;;;;;;;39.26;28.49;97061.19;108813;1264;22540;-81
2022/07/24 08:54:50;;;;;;;3.80;1.90;;;;;;;38.40;28.45;97059.23;108846;1264;22514;-81
2022/07/24 08:57:29;;;;;;;2.30;1.70;;;;;;;39.12;26.77;97057.55;107582;1264;1501652;-79
2022/07/24 09:00:00;;;;;;;2.20;1.70;;;;;;;39.17;26.14;97055.58;108676;1264;24239;-81
2022/07/24 09:02:42;;;;;;;2.10;1.70;;;;;;;37.54;24.84;97048.19;108857;1264;22556;-79
2022/07/24 09:05:13;;;;;;;4.90;2.20;;;;;;;34.65;26.18;97044.86;108614;1264;128475;-78
2022/07/24 09:07:47;;;;;;;3.80;1.90;;;;;;;33.57;29.00;97055.90;108650;1261;22548;-80
2022/07/24 09:10:20;;;;;;;2.40;1.80;;;;;;;35.07;27.73;97058.24;108821;1264;23366;-81
2022/07/24 09:12:52;;;;;;;3.60;1.90;;;;;;;32.98;26.97;97052.65;108845;1264;23317;-81
2022/07/24 09:15:28;;;;;;;3.00;2.00;;;;;;;29.86;29.86;97054.83;108595;1264;100450;-81
2022/07/24 09:18:02;;;;;;;3.50;1.90;;;;;;;28.09;33.10;97049.73;108865;1264;22536;-81
2022/07/24 09:20:40;;;;;;;2.00;1.70;;;;;;;26.51;34.74;97062.05;108831;1262;24247;-80
2022/07/24 09:23:19;;;;;;;2.00;1.80;;;;;;;25.77;35.89;97058.21;108812;1264;22634;-80
2022/07/24 09:25:55;;;;;;;3.80;2.30;;;;;;;25.34;36.93;97060.55;107300;1263;1802302;-80
2022/07/24 09:28:28;;;;;;;4.60;2.50;;;;;;;25.29;37.64;97062.95;108835;1264;22529;-80
2022/07/24 09:31:03;;;;;;;3.90;2.20;;;;;;;25.51;38.29;97054.94;108867;1264;24389;-80
2022/07/24 09:33:38;;;;;;;4.80;2.40;;;;;;;25.70;37.71;97054.69;108837;1264;22712;-80
2022/07/24 09:36:18;;;;;;;3.20;2.30;;;;;;;25.60;38.28;97055.00;108669;1264;97767;-80
2022/07/24 09:38:52;;;;;;;3.40;2.60;;;;;;;25.66;37.75;97055.88;108604;1264;22595;-80
2022/07/24 09:41:24;;;;;;;3.40;2.50;;;;;;;25.55;38.42;97054.45;108876;1264;22697;-81
2022/07/24 09:44:03;;;;;;;2.50;2.20;;;;;;;25.53;38.85;97062.64;108643;1264;22551;-81
2022/07/24 09:46:37;;;;;;;5.00;2.50;;;;;;;25.43;39.43;97064.34;108504;1264;36525;-79
2022/07/24 09:49:22;;;;;;;3.40;2.60;;;;;;;25.12;39.26;97062.45;108514;1264;22946;-81
2022/07/24 09:54:51;;;;;;;4.50;3.20;;;;;;;25.23;39.26;97059.05;104616;1309;545716;-80
2022/07/24 09:57:26;;;;;;;4.00;3.20;;;;;;;25.10;39.32;97063.10;107419;1280;81290;-80
2022/07/24 10:00:01;;;;;;;4.60;2.90;;;;;;;24.89;39.70;97058.91;108017;1274;22547;-81
2022/07/24 10:02:34;;;;;;;3.60;3.30;;;;;;;24.59;40.09;97059.20;107996;1274;22550;-81
2022/07/24 10:05:09;;;;;;;6.00;2.90;;;;;;;24.63;40.80;97054.02;108052;1274;22543;-80
2022/07/24 10:07:44;;;;;;;4.90;3.20;;;;;;;25.22;41.30;97049.73;107904;1274;229749;-80
2022/07/24 10:10:20;;;;;;;4.70;2.90;;;;;;;25.77;41.19;97052.31;108371;1268;23355;-80
2022/07/24 10:12:55;;;;;;;4.20;3.00;;;;;;;26.14;40.01;97050.73;108211;1268;22695;-80
2022/07/24 10:15:35;;;;;;;5.10;3.60;;;;;;;26.09;39.42;97045.45;107761;1268;225774;-80
2022/07/24 10:18:18;;;;;;;4.80;3.60;;;;;;;25.42;39.85;97047.95;108162;1268;22627;-80
2022/07/24 10:21:00;;;;;;;5.20;4.10;;;;;;;25.27;40.94;97045.70;108235;1268;22536;-80
2022/07/24 10:23:51;;;;;;;4.80;3.80;;;;;;;25.41;40.63;97052.60;108228;1268;22555;-80
2022/07/24 10:26:34;;;;;;;4.50;3.60;;;;;;;25.39;40.62;97054.59;108148;1268;28085;-79
2022/07/24 10:29:10;;;;;;;5.30;3.70;;;;;;;25.20;40.80;97054.66;108220;1268;22559;-80
2022/07/24 10:31:43;;;;;;;4.70;4.10;;;;;;;25.07;41.35;97047.23;108152;1270;22721;-80
2022/07/24 10:34:24;;;;;;;5.10;4.00;;;;;;;25.20;40.62;97042.88;108124;1270;22866;-80
2022/07/24 10:37:06;;;;;;;5.50;3.80;;;;;;;25.21;41.41;97040.50;108014;1270;83948;-80
2022/07/24 10:39:47;;;;;;;4.50;3.60;;;;;;;25.50;41.04;97032.89;108133;1270;23841;-81
2022/07/24 10:42:19;;;;;;;4.90;3.90;;;;;;;25.45;40.01;97035.38;108118;1270;22552;-79
2022/07/24 10:45:16;;;;;;;6.60;3.90;;;;;;;25.62;40.96;97033.33;108224;1268;25302;-80
2022/07/24 10:47:48;;;;;;;5.10;4.20;;;;;;;25.84;40.24;97035.59;108166;1268;22535;-80
2022/07/24 10:50:22;;;;;;;4.60;3.90;;;;;;;25.74;41.21;97036.36;108120;1270;22532;-80
2022/07/24 10:52:54;;;;;;;5.00;3.70;;;;;;;26.13;40.77;97027.65;108187;1270;22555;-80
2022/07/24 10:56:04;;;;;;;5.10;3.90;;;;;;;25.90;39.70;97024.79;98619;1270;7374864;-79
2022/07/24 10:58:57;;;;;;;5.90;3.40;;;;;;;25.59;40.37;97024.17;108188;1270;30335;-81
2022/07/24 11:01:34;;;;;;;5.20;3.80;;;;;;;25.33;40.18;97030.30;108127;1270;22558;-80
2022/07/24 11:04:29;;;;;;;4.30;3.90;;;;;;;25.13;41.47;97031.60;108155;1268;25250;-81
2022/07/24 11:07:11;;;;;;;5.60;4.20;;;;;;;25.04;41.33;97030.98;108091;1269;24103;-80
2022/07/24 11:10:00;;;;;;;5.30;4.00;;;;;;;24.63;41.92;97035.11;108105;1270;22581;-81
2022/07/24 11:12:44;;;;;;;4.70;3.90;;;;;;;24.51;42.21;97032.41;108138;1269;23256;-81
2022/07/24 11:18:17;;;;;;;5.60;4.40;;;;;;;25.13;43.22;97027.96;108112;1270;22543;-79
2022/07/24 11:20:48;;;;;;;5.40;3.90;;;;;;;25.36;43.05;97029.10;108125;1270;22527;-80
2022/07/24 11:23:23;;;;;;;4.80;4.10;;;;;;;25.15;41.57;97031.94;108045;1270;22548;-79
2022/07/24 11:26:32;;;;;;;4.90;4.40;;;;;;;24.98;41.29;97021.25;107059;1270;1243359;-81
2022/07/24 11:29:17;;;;;;;5.10;4.00;;;;;;;24.82;41.48;97014.24;108012;1270;24200;-80
2022/07/24 11:31:57;;;;;;;4.60;4.00;;;;;;;24.81;42.44;97017.15;108086;1270;22534;-80
2022/07/24 11:34:31;;;;;;;4.60;4.20;;;;;;;24.67;41.78;97021.02;108094;1270;22758;-80
2022/07/24 11:37:03;;;;;;;4.20;3.90;;;;;;;24.67;42.75;97020.92;108021;1269;59841;-80
2022/07/24 11:39:36;;;;;;;4.80;4.30;;;;;;;24.79;42.75;97023.80;108063;1270;24276;-80
2022/07/24 11:42:09;;;;;;;5.20;4.30;;;;;;;24.69;42.39;97022.91;108161;1270;22542;-81
2022/07/24 11:44:43;;;;;;;5.60;4.30;;;;;;;24.54;42.03;97016.43;108048;1270;22578;-81
2022/07/24 11:47:17;;;;;;;5.20;3.90;;;;;;;24.52;42.52;97012.92;108048;1270;40415;-78
2022/07/24 11:49:52;;;;;;;4.40;4.00;;;;;;;24.58;42.53;97011.54;108127;1270;24126;-79
2022/07/24 11:52:27;;;;;;;5.30;4.30;;;;;;;24.64;42.53;97007.85;108186;1270;22569;-80
2022/07/24 11:55:00;;;;;;;6.90;4.00;;;;;;;24.60;43.00;97007.39;108129;1270;22555;-82
2022/07/24 11:57:36;;;;;;;3.60;3.20;;;;;;;24.62;41.40;97006.90;108049;1270;42081;-80
2022/07/24 12:00:15;;;;;;;3.50;3.10;;;;;;;24.59;40.31;97004.74;108156;1270;22530;-80
2022/07/24 12:02:54;;;;;;;3.80;3.40;;;;;;;24.70;40.85;97006.18;108112;1270;24946;-80
2022/07/24 12:05:30;;;;;;;5.00;3.50;;;;;;;24.81;40.19;97002.38;108081;1270;33505;-81